sensor_id;sensor_type;location;lat;lon;timestamp;P1;durP1;ratioP1;P2;durP2;ratioP2
31818;SDS011;18384;48.860;9.188;2023-08-06T00:00:48;6.93;;;4.20;;
31818;SDS011;18384;48.860;9.188;2023-08-06T00:03:14;9.38;;;4.07;;
31818;SDS011;18384;48.860;9.188;2023-08-06T00:05:43;8.20;;;4.32;;
31818;SDS011;18384;48.860;9.188;2023-08-06T00:08:09;6.57;;;4.43;;
31818;SDS011;18384;48.860;9.188;2023-08-06T00:10:35;7.22;;;4.10;;
31818;SDS011;18384;48.860;9.188;2023-08-06T00:13:01;6.62;;;3.80;;
31818;SDS011;18384;48.860;9.188;2023-08-06T00:15:27;7.12;;;4.68;;
31818;SDS011;18384;48.860;9.188;2023-08-06T00:17:54;8.82;;;4.28;;
31818;SDS011;18384;48.860;9.188;2023-08-06T00:20:20;9.35;;;4.50;;
31818;SDS011;18384;48.860;9.188;2023-08-06T00:25:12;7.03;;;4.10;;
31818;SDS011;18384;48.860;9.188;2023-08-06T00:27:38;6.87;;;4.47;;
31818;SDS011;18384;48.860;9.188;2023-08-06T00:30:04;10.82;;;4.30;;
31818;SDS011;18384;48.860;9.188;2023-08-06T00:32:31;5.60;;;4.43;;
31818;SDS011;18384;48.860;9.188;2023-08-06T00:34:57;6.62;;;4.45;;
31818;SDS011;18384;48.860;9.188;2023-08-06T00:37:23;8.55;;;5.07;;
31818;SDS011;18384;48.860;9.188;2023-08-06T00:39:50;6.43;;;4.43;;
31818;SDS011;18384;48.860;9.188;2023-08-06T00:42:16;7.70;;;4.55;;
31818;SDS011;18384;48.860;9.188;2023-08-06T00:44:45;9.35;;;4.80;;
31818;SDS011;18384;48.860;9.188;2023-08-06T00:49:38;9.93;;;5.37;;
31818;SDS011;18384;48.860;9.188;2023-08-06T00:52:05;8.23;;;5.28;;
31818;SDS011;18384;48.860;9.188;2023-08-06T00:54:32;9.85;;;5.20;;
31818;SDS011;18384;48.860;9.188;2023-08-06T00:56:59;8.40;;;5.15;;
31818;SDS011;18384;48.860;9.188;2023-08-06T00:59:27;10.05;;;5.25;;
31818;SDS011;18384;48.860;9.188;2023-08-06T01:01:55;8.93;;;5.70;;
31818;SDS011;18384;48.860;9.188;2023-08-06T01:04:21;8.10;;;5.18;;
31818;SDS011;18384;48.860;9.188;2023-08-06T01:06:49;7.18;;;5.10;;
31818;SDS011;18384;48.860;9.188;2023-08-06T01:16:15;9.18;;;4.95;;
31818;SDS011;18384;48.860;9.188;2023-08-06T01:18:47;11.02;;;5.55;;
31818;SDS011;18384;48.860;9.188;2023-08-06T01:21:16;8.55;;;5.50;;
31818;SDS011;18384;48.860;9.188;2023-08-06T01:23:43;7.60;;;5.40;;
31818;SDS011;18384;48.860;9.188;2023-08-06T01:29:03;9.80;;;5.30;;
31818;SDS011;18384;48.860;9.188;2023-08-06T01:31:37;18.02;;;5.07;;
31818;SDS011;18384;48.860;9.188;2023-08-06T01:34:05;10.38;;;5.85;;
31818;SDS011;18384;48.860;9.188;2023-08-06T01:36:36;9.30;;;6.82;;
31818;SDS011;18384;48.860;9.188;2023-08-06T01:39:03;9.27;;;6.57;;
31818;SDS011;18384;48.860;9.188;2023-08-06T01:41:30;9.80;;;6.20;;
31818;SDS011;18384;48.860;9.188;2023-08-06T01:43:56;9.82;;;6.65;;
31818;SDS011;18384;48.860;9.188;2023-08-06T01:46:22;14.75;;;6.80;;
31818;SDS011;18384;48.860;9.188;2023-08-06T01:48:48;10.05;;;7.47;;
31818;SDS011;18384;48.860;9.188;2023-08-06T01:51:15;10.75;;;7.22;;
31818;SDS011;18384;48.860;9.188;2023-08-06T01:53:41;12.63;;;7.45;;
31818;SDS011;18384;48.860;9.188;2023-08-06T01:56:07;9.70;;;6.80;;
31818;SDS011;18384;48.860;9.188;2023-08-06T01:58:33;8.95;;;5.37;;
31818;SDS011;18384;48.860;9.188;2023-08-06T02:01:00;9.45;;;5.10;;
31818;SDS011;18384;48.860;9.188;2023-08-06T02:03:27;8.30;;;4.18;;
31818;SDS011;18384;48.860;9.188;2023-08-06T02:05:53;6.70;;;3.80;;
31818;SDS011;18384;48.860;9.188;2023-08-06T02:08:19;8.73;;;4.03;;
31818;SDS011;18384;48.860;9.188;2023-08-06T02:10:45;5.10;;;3.30;;
31818;SDS011;18384;48.860;9.188;2023-08-06T02:13:11;4.72;;;2.75;;
31818;SDS011;18384;48.860;9.188;2023-08-06T02:15:44;8.93;;;3.15;;
31818;SDS011;18384;48.860;9.188;2023-08-06T02:18:14;6.25;;;2.90;;
31818;SDS011;18384;48.860;9.188;2023-08-06T02:20:41;4.72;;;2.87;;
31818;SDS011;18384;48.860;9.188;2023-08-06T02:23:08;6.93;;;2.97;;
31818;SDS011;18384;48.860;9.188;2023-08-06T02:25:34;7.62;;;2.60;;
31818;SDS011;18384;48.860;9.188;2023-08-06T02:28:01;3.70;;;2.50;;
31818;SDS011;18384;48.860;9.188;2023-08-06T02:30:27;6.37;;;2.50;;
31818;SDS011;18384;48.860;9.188;2023-08-06T02:32:53;4.55;;;2.12;;
31818;SDS011;18384;48.860;9.188;2023-08-06T02:35:19;3.65;;;2.08;;
31818;SDS011;18384;48.860;9.188;2023-08-06T02:37:45;4.03;;;2.50;;
31818;SDS011;18384;48.860;9.188;2023-08-06T02:40:11;8.05;;;3.10;;
31818;SDS011;18384;48.860;9.188;2023-08-06T02:42:38;3.90;;;2.30;;
31818;SDS011;18384;48.860;9.188;2023-08-06T02:45:04;4.15;;;2.08;;
31818;SDS011;18384;48.860;9.188;2023-08-06T02:47:31;4.75;;;2.47;;
31818;SDS011;18384;48.860;9.188;2023-08-06T02:49:57;5.70;;;2.25;;
31818;SDS011;18384;48.860;9.188;2023-08-06T02:52:23;5.12;;;2.20;;
31818;SDS011;18384;48.860;9.188;2023-08-06T02:54:49;4.32;;;2.30;;
31818;SDS011;18384;48.860;9.188;2023-08-06T02:57:15;5.87;;;2.20;;
31818;SDS011;18384;48.860;9.188;2023-08-06T02:59:41;4.70;;;2.40;;
31818;SDS011;18384;48.860;9.188;2023-08-06T03:02:07;8.75;;;2.58;;
31818;SDS011;18384;48.860;9.188;2023-08-06T03:04:33;9.50;;;2.20;;
31818;SDS011;18384;48.860;9.188;2023-08-06T03:07:00;8.45;;;2.40;;
31818;SDS011;18384;48.860;9.188;2023-08-06T03:09:26;4.35;;;2.25;;
31818;SDS011;18384;48.860;9.188;2023-08-06T03:11:52;6.20;;;2.37;;
31818;SDS011;18384;48.860;9.188;2023-08-06T03:14:18;11.05;;;2.40;;
31818;SDS011;18384;48.860;9.188;2023-08-06T03:16:44;6.93;;;2.37;;
31818;SDS011;18384;48.860;9.188;2023-08-06T03:19:10;3.50;;;2.33;;
31818;SDS011;18384;48.860;9.188;2023-08-06T03:21:36;10.75;;;2.25;;
31818;SDS011;18384;48.860;9.188;2023-08-06T03:24:02;6.47;;;2.67;;
31818;SDS011;18384;48.860;9.188;2023-08-06T03:26:28;6.25;;;2.40;;
31818;SDS011;18384;48.860;9.188;2023-08-06T03:28:54;5.45;;;2.45;;
31818;SDS011;18384;48.860;9.188;2023-08-06T03:31:21;3.67;;;2.47;;
31818;SDS011;18384;48.860;9.188;2023-08-06T03:33:47;4.05;;;2.60;;
31818;SDS011;18384;48.860;9.188;2023-08-06T03:36:13;6.72;;;2.45;;
31818;SDS011;18384;48.860;9.188;2023-08-06T03:38:39;5.70;;;2.67;;
31818;SDS011;18384;48.860;9.188;2023-08-06T03:41:05;6.40;;;2.85;;
31818;SDS011;18384;48.860;9.188;2023-08-06T03:43:31;9.43;;;2.65;;
31818;SDS011;18384;48.860;9.188;2023-08-06T03:45:57;5.00;;;2.30;;
31818;SDS011;18384;48.860;9.188;2023-08-06T03:48:23;3.72;;;2.00;;
31818;SDS011;18384;48.860;9.188;2023-08-06T03:50:50;9.25;;;3.08;;
31818;SDS011;18384;48.860;9.188;2023-08-06T03:53:16;8.15;;;4.18;;
31818;SDS011;18384;48.860;9.188;2023-08-06T03:55:42;8.07;;;3.03;;
31818;SDS011;18384;48.860;9.188;2023-08-06T03:58:08;5.68;;;2.90;;
31818;SDS011;18384;48.860;9.188;2023-08-06T04:00:34;4.72;;;2.05;;
31818;SDS011;18384;48.860;9.188;2023-08-06T04:03:00;4.60;;;2.20;;
31818;SDS011;18384;48.860;9.188;2023-08-06T04:05:26;4.20;;;2.12;;
31818;SDS011;18384;48.860;9.188;2023-08-06T04:07:52;4.93;;;2.12;;
31818;SDS011;18384;48.860;9.188;2023-08-06T04:10:18;3.17;;;1.95;;
31818;SDS011;18384;48.860;9.188;2023-08-06T04:12:44;3.42;;;2.00;;
31818;SDS011;18384;48.860;9.188;2023-08-06T04:15:11;5.20;;;2.22;;
31818;SDS011;18384;48.860;9.188;2023-08-06T04:17:37;8.57;;;2.30;;
31818;SDS011;18384;48.860;9.188;2023-08-06T04:20:03;6.72;;;2.00;;
31818;SDS011;18384;48.860;9.188;2023-08-06T04:22:31;3.53;;;2.12;;
31818;SDS011;18384;48.860;9.188;2023-08-06T04:24:57;3.75;;;2.00;;
31818;SDS011;18384;48.860;9.188;2023-08-06T04:27:23;6.32;;;2.22;;
31818;SDS011;18384;48.860;9.188;2023-08-06T04:29:49;5.97;;;1.85;;
31818;SDS011;18384;48.860;9.188;2023-08-06T04:32:15;4.47;;;1.90;;
31818;SDS011;18384;48.860;9.188;2023-08-06T04:34:42;2.95;;;1.50;;
31818;SDS011;18384;48.860;9.188;2023-08-06T04:37:08;8.23;;;1.60;;
31818;SDS011;18384;48.860;9.188;2023-08-06T04:39:34;3.70;;;1.50;;
31818;SDS011;18384;48.860;9.188;2023-08-06T04:42:00;4.15;;;1.83;;
31818;SDS011;18384;48.860;9.188;2023-08-06T04:44:26;5.47;;;1.60;;
31818;SDS011;18384;48.860;9.188;2023-08-06T04:46:52;4.87;;;1.60;;
31818;SDS011;18384;48.860;9.188;2023-08-06T04:49:20;4.20;;;1.87;;
31818;SDS011;18384;48.860;9.188;2023-08-06T04:51:46;5.55;;;1.70;;
31818;SDS011;18384;48.860;9.188;2023-08-06T04:54:12;4.28;;;1.50;;
31818;SDS011;18384;48.860;9.188;2023-08-06T04:56:38;6.45;;;1.52;;
31818;SDS011;18384;48.860;9.188;2023-08-06T04:59:04;5.43;;;1.83;;
31818;SDS011;18384;48.860;9.188;2023-08-06T05:03:57;3.28;;;1.70;;
31818;SDS011;18384;48.860;9.188;2023-08-06T05:06:23;6.05;;;2.00;;
31818;SDS011;18384;48.860;9.188;2023-08-06T05:08:49;4.18;;;1.65;;
31818;SDS011;18384;48.860;9.188;2023-08-06T05:11:15;5.85;;;1.67;;
31818;SDS011;18384;48.860;9.188;2023-08-06T05:13:41;5.95;;;1.73;;
31818;SDS011;18384;48.860;9.188;2023-08-06T05:16:07;4.60;;;1.60;;
31818;SDS011;18384;48.860;9.188;2023-08-06T05:21:00;5.78;;;1.67;;
31818;SDS011;18384;48.860;9.188;2023-08-06T05:23:26;5.90;;;1.70;;
31818;SDS011;18384;48.860;9.188;2023-08-06T05:25:52;3.08;;;1.50;;
31818;SDS011;18384;48.860;9.188;2023-08-06T05:30:44;4.72;;;1.75;;
31818;SDS011;18384;48.860;9.188;2023-08-06T05:33:10;5.15;;;2.20;;
31818;SDS011;18384;48.860;9.188;2023-08-06T05:35:37;4.70;;;1.92;;
31818;SDS011;18384;48.860;9.188;2023-08-06T05:38:03;4.28;;;1.90;;
31818;SDS011;18384;48.860;9.188;2023-08-06T05:40:29;13.05;;;1.62;;
31818;SDS011;18384;48.860;9.188;2023-08-06T05:42:55;3.97;;;1.73;;
31818;SDS011;18384;48.860;9.188;2023-08-06T05:45:21;5.57;;;1.80;;
31818;SDS011;18384;48.860;9.188;2023-08-06T05:47:48;8.15;;;1.90;;
31818;SDS011;18384;48.860;9.188;2023-08-06T05:50:14;3.92;;;1.55;;
31818;SDS011;18384;48.860;9.188;2023-08-06T05:52:40;4.80;;;1.92;;
31818;SDS011;18384;48.860;9.188;2023-08-06T05:55:07;3.22;;;1.25;;
31818;SDS011;18384;48.860;9.188;2023-08-06T05:57:33;6.03;;;1.10;;
31818;SDS011;18384;48.860;9.188;2023-08-06T06:00:00;2.92;;;1.20;;
31818;SDS011;18384;48.860;9.188;2023-08-06T06:02:27;2.45;;;1.10;;
31818;SDS011;18384;48.860;9.188;2023-08-06T06:04:53;3.15;;;1.30;;
31818;SDS011;18384;48.860;9.188;2023-08-06T06:07:19;5.07;;;1.20;;
31818;SDS011;18384;48.860;9.188;2023-08-06T06:09:45;5.60;;;1.10;;
31818;SDS011;18384;48.860;9.188;2023-08-06T06:12:12;5.85;;;1.52;;
31818;SDS011;18384;48.860;9.188;2023-08-06T06:14:38;3.12;;;1.10;;
31818;SDS011;18384;48.860;9.188;2023-08-06T06:17:04;3.75;;;1.08;;
31818;SDS011;18384;48.860;9.188;2023-08-06T06:19:30;4.82;;;1.23;;
31818;SDS011;18384;48.860;9.188;2023-08-06T06:21:56;2.62;;;0.80;;
31818;SDS011;18384;48.860;9.188;2023-08-06T06:24:23;1.40;;;0.60;;
31818;SDS011;18384;48.860;9.188;2023-08-06T06:26:49;3.33;;;0.95;;
31818;SDS011;18384;48.860;9.188;2023-08-06T06:29:15;4.45;;;0.75;;
31818;SDS011;18384;48.860;9.188;2023-08-06T06:31:41;2.05;;;0.60;;
31818;SDS011;18384;48.860;9.188;2023-08-06T06:34:07;2.00;;;0.45;;
31818;SDS011;18384;48.860;9.188;2023-08-06T06:36:33;1.37;;;0.52;;
31818;SDS011;18384;48.860;9.188;2023-08-06T06:38:59;1.70;;;0.40;;
31818;SDS011;18384;48.860;9.188;2023-08-06T06:41:25;1.52;;;0.47;;
31818;SDS011;18384;48.860;9.188;2023-08-06T06:43:51;2.00;;;0.57;;
31818;SDS011;18384;48.860;9.188;2023-08-06T06:46:17;5.45;;;0.70;;
31818;SDS011;18384;48.860;9.188;2023-08-06T06:48:44;1.70;;;0.60;;
31818;SDS011;18384;48.860;9.188;2023-08-06T06:51:10;1.50;;;0.55;;
31818;SDS011;18384;48.860;9.188;2023-08-06T06:53:36;2.17;;;0.60;;
31818;SDS011;18384;48.860;9.188;2023-08-06T06:56:03;2.28;;;0.50;;
31818;SDS011;18384;48.860;9.188;2023-08-06T06:58:30;1.20;;;0.50;;
31818;SDS011;18384;48.860;9.188;2023-08-06T07:00:57;2.05;;;0.40;;
31818;SDS011;18384;48.860;9.188;2023-08-06T07:03:23;3.25;;;0.50;;
31818;SDS011;18384;48.860;9.188;2023-08-06T07:05:49;1.75;;;0.40;;
31818;SDS011;18384;48.860;9.188;2023-08-06T07:10:42;3.85;;;0.60;;
31818;SDS011;18384;48.860;9.188;2023-08-06T07:13:09;1.10;;;0.37;;
31818;SDS011;18384;48.860;9.188;2023-08-06T07:15:35;1.45;;;0.52;;
31818;SDS011;18384;48.860;9.188;2023-08-06T07:18:01;1.23;;;0.40;;
31818;SDS011;18384;48.860;9.188;2023-08-06T07:20:27;2.12;;;0.37;;
31818;SDS011;18384;48.860;9.188;2023-08-06T07:22:58;0.75;;;0.30;;
31818;SDS011;18384;48.860;9.188;2023-08-06T07:25:25;0.75;;;0.50;;
31818;SDS011;18384;48.860;9.188;2023-08-06T07:27:52;2.70;;;0.43;;
31818;SDS011;18384;48.860;9.188;2023-08-06T07:30:18;1.40;;;0.50;;
31818;SDS011;18384;48.860;9.188;2023-08-06T07:32:44;1.73;;;0.50;;
31818;SDS011;18384;48.860;9.188;2023-08-06T07:35:10;2.87;;;0.40;;
31818;SDS011;18384;48.860;9.188;2023-08-06T07:37:38;0.40;;;0.30;;
31818;SDS011;18384;48.860;9.188;2023-08-06T07:40:04;1.30;;;0.40;;
31818;SDS011;18384;48.860;9.188;2023-08-06T07:42:31;0.68;;;0.30;;
31818;SDS011;18384;48.860;9.188;2023-08-06T07:44:58;0.60;;;0.30;;
31818;SDS011;18384;48.860;9.188;2023-08-06T07:47:24;4.30;;;0.52;;
31818;SDS011;18384;48.860;9.188;2023-08-06T07:52:16;6.20;;;0.50;;
31818;SDS011;18384;48.860;9.188;2023-08-06T07:54:43;1.15;;;0.50;;
31818;SDS011;18384;48.860;9.188;2023-08-06T07:57:09;3.70;;;0.40;;
31818;SDS011;18384;48.860;9.188;2023-08-06T08:02:01;1.37;;;0.37;;
31818;SDS011;18384;48.860;9.188;2023-08-06T08:04:27;0.80;;;0.30;;
31818;SDS011;18384;48.860;9.188;2023-08-06T08:06:53;0.82;;;0.40;;
31818;SDS011;18384;48.860;9.188;2023-08-06T08:09:19;0.60;;;0.40;;
31818;SDS011;18384;48.860;9.188;2023-08-06T08:11:45;0.65;;;0.37;;
31818;SDS011;18384;48.860;9.188;2023-08-06T08:14:12;0.80;;;0.40;;
31818;SDS011;18384;48.860;9.188;2023-08-06T08:19:04;0.20;;;0.20;;
31818;SDS011;18384;48.860;9.188;2023-08-06T08:21:31;0.30;;;0.20;;
31818;SDS011;18384;48.860;9.188;2023-08-06T08:23:59;2.55;;;0.30;;
31818;SDS011;18384;48.860;9.188;2023-08-06T08:26:26;0.73;;;0.20;;
31818;SDS011;18384;48.860;9.188;2023-08-06T08:28:56;0.62;;;0.20;;
31818;SDS011;18384;48.860;9.188;2023-08-06T08:31:23;1.85;;;0.40;;
31818;SDS011;18384;48.860;9.188;2023-08-06T08:33:49;0.55;;;0.20;;
31818;SDS011;18384;48.860;9.188;2023-08-06T08:36:15;0.50;;;0.28;;
31818;SDS011;18384;48.860;9.188;2023-08-06T08:38:41;1.55;;;0.30;;
31818;SDS011;18384;48.860;9.188;2023-08-06T08:41:09;0.73;;;0.20;;
31818;SDS011;18384;48.860;9.188;2023-08-06T08:43:35;0.20;;;0.20;;
31818;SDS011;18384;48.860;9.188;2023-08-06T08:46:02;0.68;;;0.20;;
31818;SDS011;18384;48.860;9.188;2023-08-06T08:48:31;0.40;;;0.20;;
31818;SDS011;18384;48.860;9.188;2023-08-06T08:50:57;0.40;;;0.28;;
31818;SDS011;18384;48.860;9.188;2023-08-06T08:53:23;1.40;;;0.20;;
31818;SDS011;18384;48.860;9.188;2023-08-06T08:55:50;0.32;;;0.20;;
31818;SDS011;18384;48.860;9.188;2023-08-06T08:58:18;0.10;;;0.10;;
31818;SDS011;18384;48.860;9.188;2023-08-06T09:00:47;0.10;;;0.10;;
31818;SDS011;18384;48.860;9.188;2023-08-06T09:03:14;0.70;;;0.28;;
31818;SDS011;18384;48.860;9.188;2023-08-06T09:05:43;1.50;;;0.30;;
31818;SDS011;18384;48.860;9.188;2023-08-06T09:08:11;0.62;;;0.30;;
31818;SDS011;18384;48.860;9.188;2023-08-06T09:10:41;1.23;;;0.20;;
31818;SDS011;18384;48.860;9.188;2023-08-06T09:13:09;2.12;;;0.30;;
31818;SDS011;18384;48.860;9.188;2023-08-06T09:15:37;1.20;;;0.20;;
31818;SDS011;18384;48.860;9.188;2023-08-06T09:18:10;0.93;;;0.20;;
31818;SDS011;18384;48.860;9.188;2023-08-06T09:20:39;0.20;;;0.20;;
31818;SDS011;18384;48.860;9.188;2023-08-06T09:23:08;0.57;;;0.20;;
31818;SDS011;18384;48.860;9.188;2023-08-06T09:25:39;0.77;;;0.30;;
31818;SDS011;18384;48.860;9.188;2023-08-06T09:28:08;0.22;;;0.20;;
31818;SDS011;18384;48.860;9.188;2023-08-06T09:33:02;0.80;;;0.20;;
31818;SDS011;18384;48.860;9.188;2023-08-06T09:35:32;0.10;;;0.10;;
31818;SDS011;18384;48.860;9.188;2023-08-06T09:38:05;0.13;;;0.13;;
31818;SDS011;18384;48.860;9.188;2023-08-06T09:40:36;0.62;;;0.43;;
31818;SDS011;18384;48.860;9.188;2023-08-06T09:43:04;2.75;;;0.22;;
31818;SDS011;18384;48.860;9.188;2023-08-06T09:45:31;0.52;;;0.30;;
31818;SDS011;18384;48.860;9.188;2023-08-06T09:48:03;0.62;;;0.20;;
31818;SDS011;18384;48.860;9.188;2023-08-06T09:50:35;1.12;;;0.30;;
31818;SDS011;18384;48.860;9.188;2023-08-06T09:53:04;2.50;;;0.20;;
31818;SDS011;18384;48.860;9.188;2023-08-06T09:55:33;0.57;;;0.30;;
31818;SDS011;18384;48.860;9.188;2023-08-06T09:58:00;0.30;;;0.20;;
31818;SDS011;18384;48.860;9.188;2023-08-06T10:00:26;0.43;;;0.20;;
31818;SDS011;18384;48.860;9.188;2023-08-06T10:02:53;0.25;;;0.20;;
31818;SDS011;18384;48.860;9.188;2023-08-06T10:05:21;3.37;;;0.32;;
31818;SDS011;18384;48.860;9.188;2023-08-06T10:07:49;0.40;;;0.30;;
31818;SDS011;18384;48.860;9.188;2023-08-06T10:10:18;0.43;;;0.30;;
31818;SDS011;18384;48.860;9.188;2023-08-06T10:12:46;0.80;;;0.30;;
31818;SDS011;18384;48.860;9.188;2023-08-06T10:15:17;0.52;;;0.20;;
31818;SDS011;18384;48.860;9.188;2023-08-06T10:17:51;0.20;;;0.20;;
31818;SDS011;18384;48.860;9.188;2023-08-06T10:20:20;0.20;;;0.20;;
31818;SDS011;18384;48.860;9.188;2023-08-06T10:23:03;0.22;;;0.20;;
31818;SDS011;18384;48.860;9.188;2023-08-06T10:25:35;0.98;;;0.20;;
31818;SDS011;18384;48.860;9.188;2023-08-06T10:28:10;0.30;;;0.13;;
31818;SDS011;18384;48.860;9.188;2023-08-06T10:30:46;1.95;;;0.20;;
31818;SDS011;18384;48.860;9.188;2023-08-06T10:33:13;1.08;;;0.35;;
31818;SDS011;18384;48.860;9.188;2023-08-06T10:35:42;0.30;;;0.20;;
31818;SDS011;18384;48.860;9.188;2023-08-06T10:38:10;0.10;;;0.10;;
31818;SDS011;18384;48.860;9.188;2023-08-06T10:40:40;0.20;;;0.20;;
31818;SDS011;18384;48.860;9.188;2023-08-06T10:43:29;1.90;;;0.20;;
31818;SDS011;18384;48.860;9.188;2023-08-06T10:46:03;1.00;;;0.20;;
31818;SDS011;18384;48.860;9.188;2023-08-06T10:48:36;0.20;;;0.10;;
31818;SDS011;18384;48.860;9.188;2023-08-06T10:51:10;0.28;;;0.20;;
31818;SDS011;18384;48.860;9.188;2023-08-06T10:53:41;0.10;;;0.10;;
31818;SDS011;18384;48.860;9.188;2023-08-06T10:58:54;0.40;;;0.20;;
31818;SDS011;18384;48.860;9.188;2023-08-06T11:01:24;0.32;;;0.17;;
31818;SDS011;18384;48.860;9.188;2023-08-06T11:03:55;0.43;;;0.30;;
31818;SDS011;18384;48.860;9.188;2023-08-06T11:06:22;0.62;;;0.30;;
31818;SDS011;18384;48.860;9.188;2023-08-06T11:08:49;0.57;;;0.30;;
31818;SDS011;18384;48.860;9.188;2023-08-06T11:11:18;0.82;;;0.30;;
31818;SDS011;18384;48.860;9.188;2023-08-06T11:13:45;0.65;;;0.35;;
31818;SDS011;18384;48.860;9.188;2023-08-06T11:16:14;0.95;;;0.40;;
31818;SDS011;18384;48.860;9.188;2023-08-06T11:18:52;0.57;;;0.40;;
31818;SDS011;18384;48.860;9.188;2023-08-06T11:21:20;1.05;;;0.45;;
31818;SDS011;18384;48.860;9.188;2023-08-06T11:23:46;0.70;;;0.40;;
31818;SDS011;18384;48.860;9.188;2023-08-06T11:26:18;1.48;;;0.40;;
31818;SDS011;18384;48.860;9.188;2023-08-06T11:28:45;1.58;;;0.50;;
31818;SDS011;18384;48.860;9.188;2023-08-06T11:31:21;0.93;;;0.50;;
31818;SDS011;18384;48.860;9.188;2023-08-06T11:33:52;2.85;;;0.73;;
31818;SDS011;18384;48.860;9.188;2023-08-06T11:36:28;5.45;;;0.55;;
31818;SDS011;18384;48.860;9.188;2023-08-06T11:39:01;1.40;;;0.50;;
31818;SDS011;18384;48.860;9.188;2023-08-06T11:41:30;1.20;;;0.57;;
31818;SDS011;18384;48.860;9.188;2023-08-06T11:44:03;3.20;;;0.60;;
31818;SDS011;18384;48.860;9.188;2023-08-06T11:49:15;2.95;;;0.65;;
31818;SDS011;18384;48.860;9.188;2023-08-06T11:51:41;5.80;;;0.75;;
31818;SDS011;18384;48.860;9.188;2023-08-06T11:54:07;2.33;;;0.93;;
31818;SDS011;18384;48.860;9.188;2023-08-06T11:56:33;5.20;;;1.10;;
31818;SDS011;18384;48.860;9.188;2023-08-06T11:59:00;1.60;;;0.73;;
31818;SDS011;18384;48.860;9.188;2023-08-06T12:01:26;1.98;;;0.75;;
31818;SDS011;18384;48.860;9.188;2023-08-06T12:03:58;3.62;;;1.12;;
31818;SDS011;18384;48.860;9.188;2023-08-06T12:06:27;1.70;;;1.00;;
31818;SDS011;18384;48.860;9.188;2023-08-06T12:08:53;2.08;;;0.90;;
31818;SDS011;18384;48.860;9.188;2023-08-06T12:11:23;5.90;;;0.90;;
31818;SDS011;18384;48.860;9.188;2023-08-06T12:13:52;2.40;;;1.20;;
31818;SDS011;18384;48.860;9.188;2023-08-06T12:16:21;2.00;;;1.00;;
31818;SDS011;18384;48.860;9.188;2023-08-06T12:18:49;2.25;;;1.00;;
31818;SDS011;18384;48.860;9.188;2023-08-06T12:23:41;3.95;;;1.42;;
31818;SDS011;18384;48.860;9.188;2023-08-06T12:26:07;8.20;;;1.67;;
31818;SDS011;18384;48.860;9.188;2023-08-06T12:28:33;3.85;;;1.25;;
31818;SDS011;18384;48.860;9.188;2023-08-06T12:30:59;2.85;;;1.25;;
31818;SDS011;18384;48.860;9.188;2023-08-06T12:33:25;3.10;;;1.25;;
31818;SDS011;18384;48.860;9.188;2023-08-06T12:35:52;4.40;;;1.52;;
31818;SDS011;18384;48.860;9.188;2023-08-06T12:38:22;2.00;;;1.10;;
31818;SDS011;18384;48.860;9.188;2023-08-06T12:40:48;3.80;;;1.35;;
31818;SDS011;18384;48.860;9.188;2023-08-06T12:43:14;2.33;;;1.08;;
31818;SDS011;18384;48.860;9.188;2023-08-06T12:45:40;2.50;;;1.10;;
31818;SDS011;18384;48.860;9.188;2023-08-06T12:48:07;2.55;;;1.20;;
31818;SDS011;18384;48.860;9.188;2023-08-06T12:50:33;1.95;;;1.23;;
31818;SDS011;18384;48.860;9.188;2023-08-06T12:53:00;3.45;;;1.10;;
31818;SDS011;18384;48.860;9.188;2023-08-06T12:57:52;4.05;;;1.45;;
31818;SDS011;18384;48.860;9.188;2023-08-06T13:00:18;4.07;;;1.00;;
31818;SDS011;18384;48.860;9.188;2023-08-06T13:02:44;2.60;;;1.02;;
31818;SDS011;18384;48.860;9.188;2023-08-06T13:05:10;1.73;;;0.70;;
31818;SDS011;18384;48.860;9.188;2023-08-06T13:07:36;1.73;;;0.70;;
31818;SDS011;18384;48.860;9.188;2023-08-06T13:10:03;3.05;;;1.02;;
31818;SDS011;18384;48.860;9.188;2023-08-06T13:12:30;1.92;;;0.80;;
31818;SDS011;18384;48.860;9.188;2023-08-06T13:14:56;2.22;;;1.00;;
31818;SDS011;18384;48.860;9.188;2023-08-06T13:17:24;3.53;;;0.90;;
31818;SDS011;18384;48.860;9.188;2023-08-06T13:19:51;1.23;;;0.68;;
31818;SDS011;18384;48.860;9.188;2023-08-06T13:22:17;4.80;;;0.90;;
31818;SDS011;18384;48.860;9.188;2023-08-06T13:24:43;2.62;;;0.88;;
31818;SDS011;18384;48.860;9.188;2023-08-06T13:27:09;1.83;;;0.80;;
31818;SDS011;18384;48.860;9.188;2023-08-06T13:32:01;1.60;;;0.73;;
31818;SDS011;18384;48.860;9.188;2023-08-06T13:34:27;1.50;;;0.77;;
31818;SDS011;18384;48.860;9.188;2023-08-06T13:36:53;2.22;;;0.55;;
31818;SDS011;18384;48.860;9.188;2023-08-06T13:39:20;2.40;;;0.60;;
31818;SDS011;18384;48.860;9.188;2023-08-06T13:41:46;2.45;;;0.50;;
31818;SDS011;18384;48.860;9.188;2023-08-06T13:44:12;2.28;;;0.52;;
31818;SDS011;18384;48.860;9.188;2023-08-06T13:46:40;2.22;;;0.52;;
31818;SDS011;18384;48.860;9.188;2023-08-06T13:49:06;4.25;;;0.43;;
31818;SDS011;18384;48.860;9.188;2023-08-06T13:51:32;1.10;;;0.55;;
31818;SDS011;18384;48.860;9.188;2023-08-06T13:54:00;3.65;;;0.50;;
31818;SDS011;18384;48.860;9.188;2023-08-06T13:56:27;0.93;;;0.50;;
31818;SDS011;18384;48.860;9.188;2023-08-06T13:58:54;0.88;;;0.52;;
31818;SDS011;18384;48.860;9.188;2023-08-06T14:01:20;1.62;;;0.60;;
31818;SDS011;18384;48.860;9.188;2023-08-06T14:03:46;1.50;;;0.50;;
31818;SDS011;18384;48.860;9.188;2023-08-06T14:08:39;0.60;;;0.40;;
31818;SDS011;18384;48.860;9.188;2023-08-06T14:11:05;1.35;;;0.50;;
31818;SDS011;18384;48.860;9.188;2023-08-06T14:13:32;0.70;;;0.40;;
31818;SDS011;18384;48.860;9.188;2023-08-06T14:15:58;1.05;;;0.43;;
31818;SDS011;18384;48.860;9.188;2023-08-06T14:18:24;1.83;;;0.57;;
31818;SDS011;18384;48.860;9.188;2023-08-06T14:20:51;2.87;;;0.52;;
31818;SDS011;18384;48.860;9.188;2023-08-06T14:23:17;2.60;;;0.65;;
31818;SDS011;18384;48.860;9.188;2023-08-06T14:25:43;1.48;;;0.75;;
31818;SDS011;18384;48.860;9.188;2023-08-06T14:28:09;1.20;;;0.70;;
31818;SDS011;18384;48.860;9.188;2023-08-06T14:30:35;1.70;;;0.70;;
31818;SDS011;18384;48.860;9.188;2023-08-06T14:35:28;2.78;;;0.80;;
31818;SDS011;18384;48.860;9.188;2023-08-06T14:40:20;2.33;;;0.88;;
31818;SDS011;18384;48.860;9.188;2023-08-06T14:42:46;2.22;;;0.60;;
31818;SDS011;18384;48.860;9.188;2023-08-06T14:45:12;4.95;;;1.30;;
31818;SDS011;18384;48.860;9.188;2023-08-06T14:47:39;1.77;;;0.82;;
31818;SDS011;18384;48.860;9.188;2023-08-06T14:50:05;1.87;;;0.70;;
31818;SDS011;18384;48.860;9.188;2023-08-06T14:54:57;1.15;;;0.50;;
31818;SDS011;18384;48.860;9.188;2023-08-06T14:57:25;3.95;;;0.52;;
31818;SDS011;18384;48.860;9.188;2023-08-06T14:59:53;2.28;;;0.60;;
31818;SDS011;18384;48.860;9.188;2023-08-06T15:02:19;1.73;;;0.57;;
31818;SDS011;18384;48.860;9.188;2023-08-06T15:04:45;2.05;;;0.70;;
31818;SDS011;18384;48.860;9.188;2023-08-06T15:07:12;1.30;;;0.60;;
31818;SDS011;18384;48.860;9.188;2023-08-06T15:09:38;1.77;;;0.77;;
31818;SDS011;18384;48.860;9.188;2023-08-06T15:12:04;2.08;;;0.50;;
31818;SDS011;18384;48.860;9.188;2023-08-06T15:14:31;2.30;;;0.60;;
31818;SDS011;18384;48.860;9.188;2023-08-06T15:16:57;1.00;;;0.50;;
31818;SDS011;18384;48.860;9.188;2023-08-06T15:19:23;2.17;;;0.62;;
31818;SDS011;18384;48.860;9.188;2023-08-06T15:21:53;1.70;;;0.60;;
31818;SDS011;18384;48.860;9.188;2023-08-06T15:24:20;1.75;;;0.50;;
31818;SDS011;18384;48.860;9.188;2023-08-06T15:26:46;1.90;;;0.75;;
31818;SDS011;18384;48.860;9.188;2023-08-06T15:29:12;1.12;;;0.60;;
31818;SDS011;18384;48.860;9.188;2023-08-06T15:31:39;1.52;;;0.60;;
31818;SDS011;18384;48.860;9.188;2023-08-06T15:34:05;1.17;;;0.50;;
31818;SDS011;18384;48.860;9.188;2023-08-06T15:36:33;1.87;;;0.70;;
31818;SDS011;18384;48.860;9.188;2023-08-06T15:39:00;1.40;;;0.50;;
31818;SDS011;18384;48.860;9.188;2023-08-06T15:41:29;6.05;;;1.00;;
31818;SDS011;18384;48.860;9.188;2023-08-06T15:46:21;3.72;;;0.60;;